createdAt,value
2016-12-08T00:00:42.562Z,0
2016-12-08T00:01:42.550Z,0
2016-12-08T00:02:42.528Z,0
2016-12-08T00:03:42.523Z,0
2016-12-08T00:04:42.509Z,0
2016-12-08T00:05:42.506Z,0
2016-12-08T00:06:42.486Z,0
2016-12-08T00:07:42.451Z,0
2016-12-08T00:08:42.456Z,0
2016-12-08T00:09:42.411Z,0
2016-12-08T00:10:42.405Z,0
2016-12-08T00:11:42.413Z,0
2016-12-08T00:12:42.410Z,0
2016-12-08T00:13:42.377Z,0
2016-12-08T00:14:42.375Z,0
2016-12-08T00:15:42.328Z,0
2016-12-08T00:16:42.346Z,0
2016-12-08T00:17:42.332Z,0
2016-12-08T00:18:42.292Z,0
2016-12-08T00:19:42.270Z,0
2016-12-08T00:20:42.259Z,0
2016-12-08T00:21:42.256Z,0
2016-12-08T00:22:42.229Z,0
2016-12-08T00:23:42.233Z,0
2016-12-08T00:24:42.205Z,0
2016-12-08T00:25:42.182Z,0
2016-12-08T00:26:42.195Z,0
2016-12-08T00:27:42.173Z,0
2016-12-08T00:28:42.136Z,0
2016-12-08T00:29:42.146Z,0
2016-12-08T00:30:42.101Z,0
2016-12-08T00:31:42.106Z,0
2016-12-08T00:32:42.077Z,0
2016-12-08T00:33:42.070Z,0
2016-12-08T00:34:42.033Z,0
2016-12-08T00:35:42.041Z,0
2016-12-08T00:36:42.045Z,0
2016-12-08T00:37:42.014Z,0
2016-12-08T00:38:42.009Z,0
2016-12-08T00:39:41.994Z,0
2016-12-08T00:40:41.956Z,0
2016-12-08T00:41:41.941Z,0
2016-12-08T00:42:41.966Z,0
2016-12-08T00:43:41.936Z,0
2016-12-08T00:44:41.903Z,0
2016-12-08T00:45:41.873Z,0
2016-12-08T00:46:41.879Z,0
2016-12-08T00:47:41.878Z,0
2016-12-08T00:48:41.836Z,0
2016-12-08T00:49:41.836Z,0
2016-12-08T00:50:41.806Z,0
2016-12-08T00:51:41.797Z,0
2016-12-08T00:52:41.767Z,0
2016-12-08T00:53:41.750Z,0
2016-12-08T00:54:41.757Z,0
2016-12-08T00:55:41.749Z,0
2016-12-08T00:56:41.716Z,0
2016-12-08T00:57:41.689Z,0
2016-12-08T00:58:41.685Z,0
2016-12-08T00:59:41.693Z,0
2016-12-08T01:00:41.667Z,0
2016-12-08T01:01:41.635Z,0
2016-12-08T01:02:41.628Z,0
2016-12-08T01:03:41.599Z,0
2016-12-08T01:04:41.585Z,0
2016-12-08T01:05:41.577Z,0
2016-12-08T01:06:41.543Z,0
2016-12-08T01:07:41.540Z,0
2016-12-08T01:08:41.517Z,0
2016-12-08T01:09:41.515Z,0
2016-12-08T01:10:41.486Z,0
2016-12-08T01:11:41.466Z,0
2016-12-08T01:12:41.475Z,0
2016-12-08T01:13:41.431Z,0
2016-12-08T01:14:41.441Z,0
2016-12-08T01:15:41.420Z,0
2016-12-08T01:16:41.418Z,0
2016-12-08T01:17:41.371Z,0
2016-12-08T01:18:41.394Z,0
2016-12-08T01:19:41.377Z,0
2016-12-08T01:20:41.363Z,0
2016-12-08T01:21:41.324Z,0
2016-12-08T01:22:41.362Z,0
2016-12-08T01:23:41.333Z,0
2016-12-08T01:24:41.296Z,0
2016-12-08T01:25:41.251Z,0
2016-12-08T01:26:41.262Z,0
2016-12-08T01:27:41.219Z,0
2016-12-08T01:28:41.215Z,0
2016-12-08T01:29:41.204Z,0
2016-12-08T01:30:41.215Z,0
2016-12-08T01:31:41.180Z,0
2016-12-08T01:32:41.153Z,0
2016-12-08T01:33:41.135Z,0
2016-12-08T01:34:41.150Z,0
2016-12-08T01:35:41.146Z,0
2016-12-08T01:36:41.436Z,0
2016-12-08T01:37:41.099Z,0
2016-12-08T01:38:41.057Z,0
2016-12-08T01:39:41.037Z,0
2016-12-08T01:40:41.033Z,0
2016-12-08T01:41:41.018Z,0
2016-12-08T01:42:41.001Z,0
2016-12-08T01:43:40.979Z,0
2016-12-08T01:44:40.974Z,0
2016-12-08T01:45:40.972Z,0
2016-12-08T01:46:40.960Z,0
2016-12-08T01:47:40.932Z,0
2016-12-08T01:48:40.898Z,0
2016-12-08T01:49:40.905Z,0
2016-12-08T01:50:40.892Z,0
2016-12-08T01:51:40.884Z,0
2016-12-08T01:52:40.841Z,0
2016-12-08T01:53:40.858Z,0
2016-12-08T01:54:40.858Z,0
2016-12-08T01:55:40.800Z,0
2016-12-08T01:56:40.798Z,0
2016-12-08T01:57:40.767Z,0
2016-12-08T01:58:40.744Z,0
2016-12-08T01:59:40.767Z,0
2016-12-08T02:00:40.731Z,0
2016-12-08T02:01:40.720Z,0
2016-12-08T02:02:40.691Z,0
2016-12-08T02:03:40.685Z,0
2016-12-08T02:04:40.661Z,0
2016-12-08T02:05:40.661Z,0
2016-12-08T02:06:40.632Z,0
2016-12-08T02:07:40.620Z,0
2016-12-08T02:08:40.648Z,0
2016-12-08T02:09:40.618Z,0
2016-12-08T02:10:40.592Z,0
2016-12-08T02:11:40.585Z,0
2016-12-08T02:12:40.553Z,0
2016-12-08T02:13:40.533Z,0
2016-12-08T02:14:40.492Z,0
2016-12-08T02:15:40.513Z,0
2016-12-08T02:16:40.502Z,0
2016-12-08T02:17:40.467Z,0
2016-12-08T02:18:40.468Z,0
2016-12-08T02:19:40.422Z,0
2016-12-08T02:20:40.402Z,0
2016-12-08T02:21:40.414Z,0
2016-12-08T02:22:40.371Z,0
2016-12-08T02:23:40.359Z,0
2016-12-08T02:24:40.361Z,0
2016-12-08T02:25:40.353Z,0
2016-12-08T02:26:40.332Z,0
2016-12-08T02:27:40.326Z,0
2016-12-08T02:28:40.325Z,0
2016-12-08T02:29:40.277Z,0
2016-12-08T02:30:40.270Z,0
2016-12-08T02:31:40.283Z,0
2016-12-08T02:32:40.239Z,0
2016-12-08T02:33:40.216Z,0
2016-12-08T02:34:40.208Z,0
2016-12-08T02:35:40.232Z,0
2016-12-08T02:36:40.173Z,0
2016-12-08T02:37:40.187Z,0
2016-12-08T02:38:40.164Z,0
2016-12-08T02:39:40.131Z,0
2016-12-08T02:40:40.114Z,0
2016-12-08T02:41:40.155Z,0
2016-12-08T02:42:40.090Z,0
2016-12-08T02:43:40.106Z,0
2016-12-08T02:44:40.075Z,0
2016-12-08T02:45:40.057Z,0
2016-12-08T02:46:40.045Z,0
2016-12-08T02:47:40.004Z,0
2016-12-08T02:48:40.023Z,0
2016-12-08T02:49:39.993Z,0
2016-12-08T02:50:39.982Z,0
2016-12-08T02:51:39.944Z,0
2016-12-08T02:52:39.961Z,0
2016-12-08T02:53:39.915Z,0
2016-12-08T02:54:39.920Z,0
2016-12-08T02:55:39.910Z,0
2016-12-08T02:56:39.878Z,0
2016-12-08T02:57:39.892Z,0
2016-12-08T02:58:39.885Z,0
2016-12-08T02:59:39.832Z,0
2016-12-08T03:00:39.839Z,0
2016-12-08T03:01:39.845Z,0
2016-12-08T03:02:39.774Z,0
2016-12-08T03:03:39.775Z,0
2016-12-08T03:04:39.766Z,0
2016-12-08T03:05:39.752Z,0
2016-12-08T03:06:39.745Z,0
2016-12-08T03:07:39.717Z,0
2016-12-08T03:08:39.732Z,0
2016-12-08T03:09:39.712Z,0
2016-12-08T03:10:39.695Z,0
2016-12-08T03:11:39.671Z,0
2016-12-08T03:12:39.653Z,0
2016-12-08T03:13:39.667Z,0
2016-12-08T03:14:39.617Z,0
2016-12-08T03:15:39.606Z,0
2016-12-08T03:16:39.572Z,0
2016-12-08T03:17:39.577Z,0
2016-12-08T03:18:39.781Z,0
2016-12-08T03:19:39.773Z,0
2016-12-08T03:20:39.540Z,0
2016-12-08T03:21:39.555Z,0
2016-12-08T03:22:39.510Z,0
2016-12-08T03:23:39.474Z,0
2016-12-08T03:24:39.483Z,0
2016-12-08T03:25:39.455Z,0
2016-12-08T03:26:39.457Z,0
2016-12-08T03:27:39.434Z,0
2016-12-08T03:28:39.439Z,0
2016-12-08T03:29:39.405Z,0
2016-12-08T03:30:39.373Z,0
2016-12-08T03:31:39.371Z,0
2016-12-08T03:32:39.359Z,0
2016-12-08T03:33:39.358Z,0
2016-12-08T03:34:39.325Z,0
2016-12-08T03:35:39.331Z,0
2016-12-08T03:36:39.309Z,0
2016-12-08T03:37:39.261Z,0
2016-12-08T03:38:39.283Z,0
2016-12-08T03:39:39.286Z,0
2016-12-08T03:40:39.237Z,0
2016-12-08T03:41:39.239Z,0
2016-12-08T03:42:39.211Z,0
2016-12-08T03:43:39.240Z,0
2016-12-08T03:44:39.204Z,0
2016-12-08T03:45:39.197Z,0
2016-12-08T03:46:39.365Z,0
2016-12-08T03:47:39.162Z,0
2016-12-08T03:48:39.358Z,0
2016-12-08T03:49:39.346Z,0
2016-12-08T03:50:39.116Z,0
2016-12-08T03:51:39.105Z,0
2016-12-08T03:52:39.091Z,0
2016-12-08T03:53:39.078Z,0
2016-12-08T03:54:39.059Z,0
2016-12-08T03:55:39.044Z,0
2016-12-08T03:56:39.095Z,0
2016-12-08T03:57:39.074Z,0
2016-12-08T03:58:39.060Z,0
2016-12-08T03:59:39.047Z,0
2016-12-08T04:00:39.029Z,0
2016-12-08T04:01:39.013Z,0
2016-12-08T04:02:39.000Z,0
2016-12-08T04:03:38.990Z,0
2016-12-08T04:04:38.972Z,0
2016-12-08T04:05:38.956Z,0
2016-12-08T04:06:38.944Z,0
2016-12-08T04:07:38.926Z,0
2016-12-08T04:08:38.913Z,0
2016-12-08T04:09:38.900Z,0
2016-12-08T04:10:38.884Z,0
2016-12-08T04:11:38.867Z,0
2016-12-08T04:12:38.853Z,0
2016-12-08T04:13:38.837Z,0
2016-12-08T04:14:38.824Z,0
2016-12-08T04:15:38.807Z,0
2016-12-08T04:16:39.035Z,0
2016-12-08T04:17:38.781Z,0
2016-12-08T04:18:38.966Z,0
2016-12-08T04:19:38.973Z,0
2016-12-08T04:20:39.057Z,0
2016-12-08T04:21:38.718Z,0
2016-12-08T04:22:38.706Z,0
2016-12-08T04:23:38.690Z,0
2016-12-08T04:24:38.677Z,0
2016-12-08T04:25:38.661Z,0
2016-12-08T04:26:38.647Z,0
2016-12-08T04:27:38.630Z,0
2016-12-08T04:28:38.613Z,0
2016-12-08T04:29:38.601Z,0
2016-12-08T04:30:38.588Z,0
2016-12-08T04:31:38.572Z,0
2016-12-08T04:32:38.558Z,0
2016-12-08T04:33:38.544Z,0
2016-12-08T04:34:38.529Z,0
2016-12-08T04:35:38.831Z,0
2016-12-08T04:36:38.497Z,0
2016-12-08T04:37:38.489Z,0
2016-12-08T04:38:38.469Z,0
2016-12-08T04:39:38.454Z,0
2016-12-08T04:40:38.438Z,0
2016-12-08T04:41:38.423Z,0
2016-12-08T04:42:38.408Z,0
2016-12-08T04:43:38.396Z,0
2016-12-08T04:44:38.380Z,0
2016-12-08T04:45:38.367Z,0
2016-12-08T04:46:38.538Z,0
2016-12-08T04:47:38.335Z,0
2016-12-08T04:48:38.511Z,0
2016-12-08T04:49:38.526Z,0
2016-12-08T04:50:38.289Z,0
2016-12-08T04:51:38.274Z,0
2016-12-08T04:52:38.261Z,0
2016-12-08T04:53:38.248Z,0
2016-12-08T04:54:38.230Z,0
2016-12-08T04:55:38.214Z,0
2016-12-08T04:56:38.201Z,0
2016-12-08T04:57:38.186Z,0
2016-12-08T04:58:38.169Z,0
2016-12-08T04:59:38.157Z,0
2016-12-08T05:00:38.143Z,0
2016-12-08T05:01:38.127Z,0
2016-12-08T05:02:38.115Z,0
2016-12-08T05:03:38.102Z,0
2016-12-08T05:04:38.081Z,0
2016-12-08T05:05:38.067Z,0
2016-12-08T05:06:38.051Z,0
2016-12-08T05:07:38.041Z,0
2016-12-08T05:08:38.020Z,0
2016-12-08T05:09:38.032Z,0
2016-12-08T05:10:37.995Z,0
2016-12-08T05:11:37.979Z,0
2016-12-08T05:12:37.988Z,0
2016-12-08T05:13:37.947Z,0
2016-12-08T05:14:37.933Z,0
2016-12-08T05:15:37.946Z,0
2016-12-08T05:16:38.231Z,0
2016-12-08T05:17:38.091Z,0
2016-12-08T05:18:38.060Z,0
2016-12-08T05:19:38.052Z,0
2016-12-08T05:20:37.845Z,0
2016-12-08T05:21:37.828Z,0
2016-12-08T05:22:37.805Z,0
2016-12-08T05:23:37.704Z,0
2016-12-08T05:24:37.713Z,0
2016-12-08T05:25:37.659Z,0
2016-12-08T05:26:37.663Z,0
2016-12-08T05:27:37.657Z,0
2016-12-08T05:28:37.650Z,0
2016-12-08T05:29:37.612Z,0
2016-12-08T05:30:37.608Z,0
2016-12-08T05:31:37.589Z,0
2016-12-08T05:32:37.593Z,0
2016-12-08T05:33:37.571Z,0
2016-12-08T05:34:37.569Z,0
2016-12-08T05:35:37.565Z,0
2016-12-08T05:36:37.526Z,0
2016-12-08T05:37:37.526Z,0
2016-12-08T05:38:37.498Z,0
2016-12-08T05:39:37.471Z,0
2016-12-08T05:40:37.445Z,0
2016-12-08T05:41:37.794Z,0
2016-12-08T05:42:37.419Z,0
2016-12-08T05:43:37.401Z,0
2016-12-08T05:44:37.422Z,0
2016-12-08T05:45:37.402Z,0
2016-12-08T05:46:37.377Z,0
2016-12-08T05:47:37.357Z,0
2016-12-08T05:48:37.358Z,0
2016-12-08T05:49:37.338Z,0
2016-12-08T05:50:37.338Z,0
2016-12-08T05:51:37.308Z,0
2016-12-08T05:52:37.292Z,0
2016-12-08T05:53:37.264Z,0
2016-12-08T05:54:37.253Z,0
2016-12-08T05:55:37.240Z,0
2016-12-08T05:56:37.226Z,0
2016-12-08T05:57:37.515Z,0
2016-12-08T05:58:37.206Z,0
2016-12-08T05:59:37.182Z,0
2016-12-08T06:00:37.183Z,0
2016-12-08T06:01:37.171Z,0
2016-12-08T06:02:37.153Z,0
2016-12-08T06:03:37.148Z,0
2016-12-08T06:04:37.141Z,0
2016-12-08T06:05:37.092Z,0
2016-12-08T06:06:37.063Z,0
2016-12-08T06:07:37.089Z,0
2016-12-08T06:08:37.056Z,0
2016-12-08T06:09:37.039Z,4
2016-12-08T06:10:37.005Z,0
2016-12-08T06:11:37.032Z,0
2016-12-08T06:12:37.006Z,4
2016-12-08T06:13:36.998Z,4
2016-12-08T06:14:36.954Z,4
2016-12-08T06:15:36.975Z,4
2016-12-08T06:16:36.955Z,4
2016-12-08T06:17:37.141Z,4
2016-12-08T06:18:36.911Z,8
2016-12-08T06:19:36.904Z,8
2016-12-08T06:20:36.902Z,8
2016-12-08T06:21:36.867Z,12
2016-12-08T06:22:36.846Z,16
2016-12-08T06:23:36.825Z,16
2016-12-08T06:24:36.800Z,20
2016-12-08T06:25:36.798Z,24
2016-12-08T06:26:36.808Z,24
2016-12-08T06:27:36.817Z,36
2016-12-08T06:28:36.770Z,40
2016-12-08T06:29:36.758Z,44
2016-12-08T06:30:37.054Z,52
2016-12-08T06:31:36.736Z,64
2016-12-08T06:32:36.720Z,76
2016-12-08T06:33:36.703Z,88
2016-12-08T06:34:36.692Z,104
2016-12-08T06:35:36.686Z,120
2016-12-08T06:36:36.675Z,140
2016-12-08T06:37:36.640Z,164
2016-12-08T06:38:36.629Z,188
2016-12-08T06:39:36.598Z,216
2016-12-08T06:40:36.603Z,244
2016-12-08T06:41:36.590Z,272
2016-12-08T06:42:36.588Z,304
2016-12-08T06:43:36.535Z,332
2016-12-08T06:44:36.574Z,356
2016-12-08T06:45:36.534Z,384
2016-12-08T06:46:36.513Z,408
2016-12-08T06:47:36.499Z,436
2016-12-08T06:48:36.469Z,468
2016-12-08T06:49:36.433Z,504
2016-12-08T06:50:36.421Z,540
2016-12-08T06:51:36.436Z,572
2016-12-08T06:52:36.434Z,620
2016-12-08T06:53:36.405Z,712
2016-12-08T06:54:36.392Z,832
2016-12-08T06:55:36.359Z,924
2016-12-08T06:56:36.363Z,996
2016-12-08T06:57:36.318Z,1056
2016-12-08T06:58:36.348Z,1108
2016-12-08T06:59:36.324Z,1164
2016-12-08T07:00:36.287Z,1228
2016-12-08T07:01:36.266Z,1304
2016-12-08T07:02:36.601Z,1372
2016-12-08T07:03:36.252Z,1448
2016-12-08T07:04:36.254Z,1520
2016-12-08T07:05:36.233Z,1600
2016-12-08T07:06:36.218Z,1692
2016-12-08T07:07:36.201Z,1768
2016-12-08T07:08:36.176Z,1856
2016-12-08T07:09:36.166Z,1968
2016-12-08T07:10:36.152Z,2104
2016-12-08T07:11:36.111Z,2256
2016-12-08T07:12:36.113Z,2424
2016-12-08T07:13:36.110Z,2588
2016-12-08T07:14:36.084Z,2736
2016-12-08T07:15:36.087Z,2844
2016-12-08T07:16:36.073Z,2956
2016-12-08T07:17:36.073Z,3064
2016-12-08T07:18:36.020Z,3176
2016-12-08T07:19:36.035Z,3264
2016-12-08T07:20:36.005Z,3380
2016-12-08T07:21:35.990Z,3532
2016-12-08T07:22:35.981Z,3668
2016-12-08T07:23:35.966Z,3788
2016-12-08T07:24:35.951Z,3852
2016-12-08T07:25:35.932Z,3892
2016-12-08T07:26:35.917Z,3912
2016-12-08T07:27:35.912Z,4052
2016-12-08T07:28:35.905Z,4292
2016-12-08T07:29:35.864Z,4532
2016-12-08T07:30:35.870Z,4760
2016-12-08T07:31:35.856Z,5036
2016-12-08T07:32:35.858Z,5280
2016-12-08T07:33:35.835Z,5356
2016-12-08T07:34:35.834Z,5264
2016-12-08T07:35:35.774Z,5312
2016-12-08T07:36:35.806Z,5716
2016-12-08T07:37:35.755Z,5968
2016-12-08T07:38:35.746Z,6092
2016-12-08T07:39:35.741Z,6224
2016-12-08T07:40:35.755Z,6164
2016-12-08T07:41:35.713Z,5932
2016-12-08T07:42:35.714Z,5884
2016-12-08T07:43:35.694Z,5780
2016-12-08T07:44:35.678Z,5768
2016-12-08T07:45:35.690Z,5984
2016-12-08T07:46:35.707Z,6396
2016-12-08T07:47:35.656Z,6636
2016-12-08T07:48:35.623Z,6568
2016-12-08T07:49:35.631Z,6768
2016-12-08T07:50:35.631Z,7296
2016-12-08T07:51:35.608Z,7808
2016-12-08T07:52:35.580Z,8004
2016-12-08T07:53:35.572Z,8100
2016-12-08T07:54:35.585Z,8224
2016-12-08T07:55:35.556Z,8176
2016-12-08T07:56:35.522Z,8036
2016-12-08T07:57:35.519Z,7988
2016-12-08T07:58:35.484Z,8160
2016-12-08T07:59:35.494Z,8732
2016-12-08T08:00:35.508Z,8872
2016-12-08T08:01:35.489Z,8784
2016-12-08T08:02:35.469Z,8660
2016-12-08T08:03:35.461Z,9048
2016-12-08T08:04:35.434Z,9604
2016-12-08T08:05:35.443Z,9992
2016-12-08T08:06:35.436Z,10420
2016-12-08T08:07:35.413Z,10084
2016-12-08T08:08:35.393Z,9876
2016-12-08T08:09:35.373Z,10340
2016-12-08T08:10:35.354Z,10440
2016-12-08T08:11:35.355Z,10524
2016-12-08T08:12:35.353Z,10944
2016-12-08T08:13:35.322Z,12048
2016-12-08T08:14:35.595Z,12864
2016-12-08T08:15:35.297Z,12692
2016-12-08T08:16:35.294Z,12956
2016-12-08T08:17:35.276Z,13696
2016-12-08T08:18:35.247Z,14080
2016-12-08T08:19:35.265Z,15168
2016-12-08T08:20:35.234Z,15488
2016-12-08T08:21:35.237Z,14604
2016-12-08T08:22:35.250Z,13876
2016-12-08T08:23:35.192Z,14032
2016-12-08T08:24:35.188Z,14356
2016-12-08T08:25:35.183Z,14380
2016-12-08T08:26:35.212Z,14864
2016-12-08T08:27:35.168Z,14384
2016-12-08T08:28:35.151Z,14212
2016-12-08T08:29:35.123Z,14468
2016-12-08T08:30:35.440Z,14720
2016-12-08T08:31:35.127Z,16448
2016-12-08T08:32:35.118Z,17120
2016-12-08T08:33:35.102Z,15552
2016-12-08T08:34:35.079Z,14612
2016-12-08T08:35:35.061Z,14384
2016-12-08T08:36:35.055Z,14212
2016-12-08T08:37:35.059Z,13868
2016-12-08T08:38:35.019Z,14688
2016-12-08T08:39:35.016Z,16416
2016-12-08T08:40:35.043Z,17184
2016-12-08T08:41:34.989Z,17088
2016-12-08T08:42:35.004Z,16384
2016-12-08T08:43:34.973Z,16288
2016-12-08T08:44:34.981Z,16288
2016-12-08T08:45:34.941Z,15904
2016-12-08T08:46:34.931Z,15712
2016-12-08T08:47:34.903Z,16256
2016-12-08T08:48:34.921Z,16992
2016-12-08T08:49:34.891Z,17504
2016-12-08T08:50:34.910Z,17504
2016-12-08T08:51:34.879Z,17344
2016-12-08T08:52:34.874Z,17856
2016-12-08T08:53:34.848Z,18752
2016-12-08T08:54:34.844Z,20448
2016-12-08T08:55:34.824Z,20768
2016-12-08T08:56:34.835Z,22240
2016-12-08T08:57:34.837Z,22976
2016-12-08T08:58:34.789Z,23744
2016-12-08T08:59:34.759Z,24128
2016-12-08T09:00:34.761Z,24512
2016-12-08T09:01:34.767Z,24960
2016-12-08T09:02:34.762Z,25568
2016-12-08T09:03:35.059Z,25632
2016-12-08T09:04:34.735Z,25184
2016-12-08T09:05:34.728Z,24960
2016-12-08T09:06:40.956Z,24864
2016-12-08T09:07:34.705Z,24416
2016-12-08T09:08:34.689Z,24256
2016-12-08T09:09:34.693Z,23296
2016-12-08T09:10:34.695Z,22272
2016-12-08T09:11:34.686Z,21952
2016-12-08T09:12:34.648Z,21312
2016-12-08T09:13:34.616Z,20864
2016-12-08T09:14:34.631Z,20544
2016-12-08T09:15:34.637Z,20096
2016-12-08T09:16:34.600Z,20576
2016-12-08T09:17:34.608Z,18304
2016-12-08T09:18:34.583Z,20928
2016-12-08T09:19:34.550Z,25344
2016-12-08T09:20:34.563Z,29344
2016-12-08T09:21:34.553Z,29952
2016-12-08T09:22:34.540Z,29536
2016-12-08T09:23:34.539Z,28064
2016-12-08T09:24:34.544Z,26752
2016-12-08T09:25:34.515Z,26400
2016-12-08T09:26:34.509Z,27552
2016-12-08T09:27:34.511Z,27680
2016-12-08T09:28:34.500Z,27168
2016-12-08T09:29:34.450Z,26624
2016-12-08T09:30:34.460Z,25952
2016-12-08T09:31:34.760Z,24448
2016-12-08T09:32:34.433Z,25344
2016-12-08T09:33:34.428Z,24096
2016-12-08T09:34:34.427Z,23840
2016-12-08T09:35:34.397Z,26720
2016-12-08T09:36:34.416Z,33632
2016-12-08T09:37:34.400Z,35968
2016-12-08T09:38:34.371Z,34624
2016-12-08T09:39:34.376Z,33056
2016-12-08T09:40:34.386Z,30944
2016-12-08T09:41:34.345Z,31360
2016-12-08T09:42:34.354Z,34880
2016-12-08T09:43:34.321Z,39328
2016-12-08T09:44:34.334Z,39584
2016-12-08T09:45:34.306Z,37344
2016-12-08T09:46:34.325Z,34272
2016-12-08T09:47:34.295Z,35168
2016-12-08T09:48:34.296Z,31520
2016-12-08T09:49:34.276Z,24160
2016-12-08T09:50:34.239Z,21312
2016-12-08T09:51:34.253Z,23648
2016-12-08T09:52:34.551Z,24128
2016-12-08T09:53:34.244Z,24736
2016-12-08T09:54:34.210Z,26016
2016-12-08T09:55:34.194Z,27168
2016-12-08T09:56:34.191Z,28000
2016-12-08T09:57:34.203Z,29152
2016-12-08T09:58:34.164Z,30208
2016-12-08T09:59:34.142Z,32320
2016-12-08T10:00:34.164Z,32608
2016-12-08T10:01:34.163Z,31136
2016-12-08T10:02:34.125Z,32128
2016-12-08T10:03:34.115Z,32992
2016-12-08T10:04:34.104Z,32096
2016-12-08T10:05:34.106Z,31328
2016-12-08T10:06:34.115Z,33856
2016-12-08T10:07:34.071Z,34784
2016-12-08T10:08:34.065Z,33600
2016-12-08T10:09:34.039Z,32960
2016-12-08T10:10:34.064Z,29568
2016-12-08T10:11:34.005Z,26752
2016-12-08T10:12:34.051Z,27648
2016-12-08T10:13:33.984Z,26144
2016-12-08T10:14:34.003Z,25344
2016-12-08T10:15:33.984Z,27296
2016-12-08T10:16:33.976Z,28704
2016-12-08T10:17:34.056Z,32992
2016-12-08T10:18:33.958Z,33344
2016-12-08T10:19:33.935Z,34656
2016-12-08T10:20:33.921Z,33056
2016-12-08T10:21:33.906Z,29376
2016-12-08T10:22:33.909Z,26464
2016-12-08T10:23:33.891Z,27712
2016-12-08T10:24:33.879Z,29760
2016-12-08T10:25:33.868Z,30496
2016-12-08T10:26:33.849Z,27776
2016-12-08T10:27:33.847Z,25120
2016-12-08T10:28:33.817Z,25312
2016-12-08T10:29:33.829Z,23712
2016-12-08T10:30:33.789Z,20768
2016-12-08T10:31:33.799Z,19776
2016-12-08T10:32:33.752Z,20704
2016-12-08T10:33:33.767Z,21216
2016-12-08T10:34:33.747Z,21760
2016-12-08T10:35:33.734Z,21984
2016-12-08T10:36:33.730Z,23360
2016-12-08T10:37:33.708Z,23328
2016-12-08T10:38:33.697Z,23488
2016-12-08T10:39:33.699Z,23328
2016-12-08T10:40:33.684Z,21952
2016-12-08T10:41:33.672Z,21664
2016-12-08T10:42:33.652Z,23264
2016-12-08T10:43:33.662Z,23264
2016-12-08T10:44:33.651Z,24288
2016-12-08T10:45:33.598Z,26080
2016-12-08T10:46:33.613Z,25536
2016-12-08T10:47:33.574Z,26784
2016-12-08T10:48:33.576Z,28608
2016-12-08T10:49:33.562Z,29056
2016-12-08T10:50:33.533Z,29152
2016-12-08T10:51:33.538Z,30688
2016-12-08T10:52:33.521Z,32000
2016-12-08T10:53:33.513Z,30368
2016-12-08T10:54:33.498Z,29600
2016-12-08T10:55:33.492Z,29472
2016-12-08T10:56:33.466Z,29120
2016-12-08T10:57:33.469Z,27904
2016-12-08T10:58:33.445Z,26592
2016-12-08T10:59:33.418Z,27520
2016-12-08T11:00:33.407Z,28128
2016-12-08T11:01:33.411Z,27456
2016-12-08T11:02:33.395Z,27136
2016-12-08T11:03:33.381Z,27680
2016-12-08T11:04:33.400Z,27488
2016-12-08T11:05:33.338Z,26432
2016-12-08T11:06:33.348Z,27424
2016-12-08T11:07:33.341Z,28672
2016-12-08T11:08:33.331Z,28736
2016-12-08T11:09:33.321Z,27712
2016-12-08T11:10:33.308Z,28224
2016-12-08T11:11:33.278Z,29120
2016-12-08T11:12:33.304Z,28832
2016-12-08T11:13:33.268Z,28864
2016-12-08T11:14:33.280Z,29280
2016-12-08T11:15:33.244Z,27936
2016-12-08T11:16:33.238Z,27360
2016-12-08T11:17:33.231Z,27680
2016-12-08T11:18:33.215Z,28960
2016-12-08T11:19:33.216Z,31584
2016-12-08T11:20:33.198Z,31872
2016-12-08T11:21:33.185Z,30432
2016-12-08T11:22:33.143Z,29472
2016-12-08T11:23:33.146Z,28320
2016-12-08T11:24:33.128Z,27040
2016-12-08T11:25:33.148Z,26304
2016-12-08T11:26:33.102Z,27616
2016-12-08T11:27:33.105Z,28640
2016-12-08T11:28:33.080Z,29024
2016-12-08T11:29:33.073Z,28512
2016-12-08T11:30:33.053Z,27200
2016-12-08T11:31:33.039Z,27648
2016-12-08T11:32:33.369Z,29728
2016-12-08T11:33:33.038Z,28896
2016-12-08T11:34:33.333Z,31680
2016-12-08T11:35:33.000Z,32320
2016-12-08T11:36:32.988Z,34496
2016-12-08T11:37:33.284Z,34496
2016-12-08T11:38:32.980Z,35328
2016-12-08T11:39:32.959Z,36128
2016-12-08T11:40:32.955Z,38304
2016-12-08T11:41:32.951Z,38112
2016-12-08T11:42:32.908Z,36704
2016-12-08T11:43:32.907Z,38400
2016-12-08T11:44:32.900Z,39232
2016-12-08T11:45:32.894Z,37024
2016-12-08T11:46:32.850Z,34720
2016-12-08T11:47:32.863Z,33632
2016-12-08T11:48:32.850Z,32768
2016-12-08T11:49:32.821Z,32928
2016-12-08T11:50:32.829Z,35648
2016-12-08T11:51:32.818Z,38272
2016-12-08T11:52:32.796Z,38208
2016-12-08T11:53:32.784Z,34816
2016-12-08T11:54:32.780Z,33536
2016-12-08T11:55:32.767Z,31904
2016-12-08T11:56:32.767Z,30880
2016-12-08T11:57:32.733Z,30848
2016-12-08T11:58:32.725Z,31008
2016-12-08T11:59:32.707Z,29600
2016-12-08T12:00:32.736Z,28640
2016-12-08T12:01:32.686Z,28384
2016-12-08T12:02:32.676Z,27744
2016-12-08T12:03:32.657Z,27584
2016-12-08T12:04:32.946Z,28000
2016-12-08T12:05:32.698Z,29984
2016-12-08T12:06:32.643Z,33440
2016-12-08T12:07:32.632Z,34880
2016-12-08T12:08:32.623Z,34080
2016-12-08T12:09:32.603Z,32160
2016-12-08T12:10:32.572Z,31040
2016-12-08T12:11:32.566Z,28288
2016-12-08T12:12:32.552Z,23104
2016-12-08T12:13:32.548Z,17856
2016-12-08T12:14:32.523Z,17696
2016-12-08T12:15:32.513Z,18624
2016-12-08T12:16:32.506Z,18592
2016-12-08T12:17:32.471Z,18816
2016-12-08T12:18:32.808Z,18784
2016-12-08T12:19:32.451Z,18784
2016-12-08T12:20:32.762Z,21984
2016-12-08T12:21:32.442Z,26016
2016-12-08T12:22:32.450Z,33696
2016-12-08T12:23:32.397Z,36576
2016-12-08T12:24:32.400Z,41216
2016-12-08T12:25:32.404Z,46336
2016-12-08T12:26:32.378Z,46016
2016-12-08T12:27:32.395Z,41216
2016-12-08T12:28:32.362Z,35264
2016-12-08T12:29:32.332Z,31136
2016-12-08T12:30:32.315Z,28928
2016-12-08T12:31:32.320Z,27456
2016-12-08T12:32:32.317Z,27136
2016-12-08T12:33:32.287Z,27424
2016-12-08T12:34:32.293Z,27648
2016-12-08T12:35:32.269Z,31296
2016-12-08T12:36:32.257Z,34240
2016-12-08T12:37:32.248Z,35264
2016-12-08T12:38:32.241Z,34176
2016-12-08T12:39:32.227Z,28288
2016-12-08T12:40:32.199Z,24992
2016-12-08T12:41:32.178Z,25664
2016-12-08T12:42:32.194Z,25760
2016-12-08T12:43:32.189Z,27488
2016-12-08T12:44:32.128Z,27328
2016-12-08T12:45:32.146Z,26336
2016-12-08T12:46:32.142Z,23872
2016-12-08T12:47:32.134Z,23264
2016-12-08T12:48:32.090Z,24672
2016-12-08T12:49:32.075Z,25440
2016-12-08T12:50:32.065Z,25280
2016-12-08T12:51:32.038Z,23648
2016-12-08T12:52:32.060Z,25696
2016-12-08T12:53:32.025Z,29312
2016-12-08T12:54:32.017Z,27552
2016-12-08T12:55:32.008Z,25280
2016-12-08T12:56:31.971Z,26432
2016-12-08T12:57:31.991Z,29120
2016-12-08T12:58:31.974Z,27392
2016-12-08T12:59:31.935Z,26368
2016-12-08T13:00:31.936Z,23456
2016-12-08T13:01:31.933Z,18592
2016-12-08T13:02:31.908Z,16224
2016-12-08T13:03:31.928Z,17376
2016-12-08T13:04:31.908Z,18688
2016-12-08T13:05:31.884Z,21152
2016-12-08T13:06:31.861Z,23840
2016-12-08T13:07:31.877Z,26048
2016-12-08T13:08:31.850Z,25120
2016-12-08T13:09:31.802Z,26080
2016-12-08T13:10:31.811Z,27488
2016-12-08T13:11:31.793Z,26336
2016-12-08T13:12:31.799Z,24448
2016-12-08T13:13:31.786Z,24800
2016-12-08T13:14:31.772Z,25568
2016-12-08T13:15:31.739Z,25120
2016-12-08T13:16:31.745Z,23840
2016-12-08T13:17:31.730Z,22048
2016-12-08T13:18:31.729Z,20320
2016-12-08T13:19:31.697Z,19488
2016-12-08T13:20:31.682Z,21408
2016-12-08T13:21:31.655Z,22720
2016-12-08T13:22:31.638Z,21824
2016-12-08T13:23:31.964Z,20448
2016-12-08T13:24:31.609Z,20352
2016-12-08T13:25:31.601Z,19520
2016-12-08T13:26:31.587Z,19552
2016-12-08T13:27:31.876Z,21056
2016-12-08T13:28:31.580Z,19872
2016-12-08T13:29:31.569Z,19584
2016-12-08T13:30:31.547Z,19072
2016-12-08T13:31:31.530Z,18432
2016-12-08T13:32:31.520Z,18176
2016-12-08T13:33:31.518Z,17856
2016-12-08T13:34:31.497Z,17536
2016-12-08T13:35:31.478Z,18272
2016-12-08T13:36:31.462Z,18016
2016-12-08T13:37:31.456Z,18400
2016-12-08T13:38:31.432Z,17664
2016-12-08T13:39:31.423Z,17120
2016-12-08T13:40:31.414Z,17728
2016-12-08T13:41:31.420Z,16736
2016-12-08T13:42:31.409Z,15520
2016-12-08T13:43:31.370Z,13684
2016-12-08T13:44:31.360Z,13296
2016-12-08T13:45:31.352Z,15648
2016-12-08T13:46:31.327Z,17120